Time;durP1;ratioP1;P1;durP2;ratioP2;P2;SDS_P1;SDS_P2;PMS_P1;PMS_P2;Temp;Humidity;BMP_temperature;BMP_pressure;BME280_temperature;BME280_humidity;BME280_pressure;Samples;Min_cycle;Max_cycle;Signal;HPM_P1;HPM_P2
2022/07/19 00:02:15;;;;;;;;;;;;;;;28.57;22.90;99713.88;4391874;32;34408;-83
2022/07/19 00:04:43;;;;;;;;;;;;;;;28.48;22.77;99717.00;4384264;32;34248;-83
2022/07/19 00:07:10;;;;;;;;;;;;;;;28.35;22.73;99710.56;4376462;32;34461;-84
2022/07/19 00:09:37;;;;;;;;;;;;;;;28.42;22.57;99711.13;4376893;32;33901;-84
2022/07/19 00:12:05;;;;;;;;;;;;;;;28.49;22.58;99707.19;4387323;32;34395;-84
2022/07/19 00:14:32;;;;;;;;;;;;;;;28.52;22.58;99713.22;4390538;32;34185;-84
2022/07/19 00:17:00;;;;;;;;;;;;;;;28.46;22.65;99712.69;4376570;32;33808;-83
2022/07/19 00:19:27;;;;;;;;;;;;;;;28.39;22.90;99712.16;4376712;32;34874;-83
2022/07/19 00:21:54;;;;;;;;;;;;;;;28.46;22.51;99710.91;4385349;32;34300;-84
2022/07/19 00:24:21;;;;;;;;;;;;;;;28.14;22.95;99713.38;4391687;32;33934;-83
2022/07/19 00:26:49;;;;;;;;;;;;;;;28.34;22.67;99719.50;4376519;32;34087;-83
2022/07/19 00:29:16;;;;;;;;;;;;;;;28.13;22.93;99705.47;4362949;32;33773;-83
2022/07/19 00:31:43;;;;;;;;;;;;;;;28.17;22.94;99706.16;4384762;32;34033;-83
2022/07/19 00:34:11;;;;;;;;;;;;;;;28.13;22.92;99708.97;4391719;32;34092;-83
2022/07/19 00:36:38;;;;;;;;;;;;;;;28.03;23.22;99709.53;4377171;32;33960;-83
2022/07/19 00:39:05;;;;;;;;;;;;;;;27.99;23.32;99707.94;4383268;32;34847;-83
2022/07/19 00:41:38;;;;;;;;;;;;;;;28.06;23.09;99707.56;4391609;32;34491;-83
2022/07/19 00:44:05;;;;;;;;;;;;;;;27.93;23.22;99709.13;4378364;32;33820;-83
2022/07/19 00:46:32;;;;;;;;;;;;;;;27.80;23.54;99710.66;4378191;32;33689;-84
2022/07/19 00:49:00;;;;;;;;;;;;;;;27.89;23.34;99713.75;4368512;32;33891;-83
2022/07/19 00:51:28;;;;;;;;;;;;;;;27.72;23.39;99708.34;4391386;32;35165;-84
2022/07/19 00:53:55;;;;;;;;;;;;;;;27.98;23.10;99711.56;4391864;32;33777;-84
2022/07/19 00:56:22;;;;;;;;;;;;;;;27.90;23.23;99709.28;4379370;32;34549;-84
2022/07/19 00:58:49;;;;;;;;;;;;;;;27.97;23.16;99712.50;4355422;32;34907;-84
2022/07/19 01:01:17;;;;;;;;;;;;;;;27.75;23.32;99710.03;4363499;32;34046;-83
2022/07/19 01:03:47;;;;;;;;;;;;;;;27.51;23.54;99710.28;4376212;32;34458;-83
2022/07/19 01:06:14;;;;;;;;;;;;;;;27.80;23.25;99714.19;4351350;32;32394;-84
2022/07/19 01:08:41;;;;;;;;;;;;;;;27.89;23.09;99708.44;4365169;32;33930;-83
2022/07/19 01:11:09;;;;;;;;;;;;;;;27.95;23.13;99706.38;4374570;32;34567;-83
2022/07/19 01:13:36;;;;;;;;;;;;;;;27.94;23.16;99705.53;4361639;32;34152;-84
2022/07/19 01:16:03;;;;;;;;;;;;;;;27.90;23.28;99701.28;4360840;32;33219;-83
2022/07/19 01:18:31;;;;;;;;;;;;;;;27.88;23.24;99695.16;4363554;32;34232;-84
2022/07/19 01:20:58;;;;;;;;;;;;;;;27.80;23.38;99697.34;4375866;32;35384;-84
2022/07/19 01:23:25;;;;;;;;;;;;;;;27.83;23.37;99698.06;4333112;33;34978;-84
2022/07/19 01:25:53;;;;;;;;;;;;;;;27.67;23.60;99701.53;4346889;33;34103;-84
2022/07/19 01:28:20;;;;;;;;;;;;;;;27.77;23.49;99697.50;4348295;32;33970;-83
2022/07/19 01:30:47;;;;;;;;;;;;;;;27.78;23.59;99693.91;4376451;32;33840;-83
2022/07/19 01:33:14;;;;;;;;;;;;;;;27.72;23.53;99695.03;4361782;32;33739;-84
2022/07/19 01:35:42;;;;;;;;;;;;;;;27.74;23.50;99697.63;4361282;32;34301;-84
2022/07/19 01:38:09;;;;;;;;;;;;;;;27.75;23.38;99692.25;4347748;32;34658;-83
2022/07/19 01:40:36;;;;;;;;;;;;;;;27.77;23.32;99685.06;4375990;32;34323;-84
2022/07/19 01:43:03;;;;;;;;;;;;;;;27.55;23.49;99687.87;4364204;32;34683;-84
2022/07/19 01:45:31;;;;;;;;;;;;;;;27.60;23.47;99690.31;4361241;32;33324;-84
2022/07/19 01:47:58;;;;;;;;;;;;;;;27.61;23.50;99684.91;4360995;32;34086;-85
2022/07/19 01:50:25;;;;;;;;;;;;;;;27.75;23.38;99689.59;4374721;32;35084;-84
2022/07/19 01:52:53;;;;;;;;;;;;;;;27.72;23.45;99681.72;4365332;32;34758;-83
2022/07/19 01:55:20;;;;;;;;;;;;;;;27.69;23.52;99678.34;4361005;32;33634;-83
2022/07/19 01:57:48;;;;;;;;;;;;;;;27.76;23.37;99690.44;4348311;32;34971;-84
2022/07/19 02:00:15;;;;;;;;;;;;;;;27.71;23.45;99681.78;4356599;32;34088;-83
2022/07/19 02:02:43;;;;;;;;;;;;;;;27.63;23.46;99685.69;4367153;32;34565;-83
2022/07/19 02:05:10;;;;;;;;;;;;;;;27.57;23.53;99687.78;4376066;32;33971;-81
2022/07/19 02:07:38;;;;;;;;;;;;;;;27.35;23.72;99685.28;4371183;32;33526;-81
2022/07/19 02:10:07;;;;;;;;;;;;;;;27.34;23.78;99680.91;4377430;32;33971;-82
2022/07/19 02:12:34;;;;;;;;;;;;;;;27.55;23.55;99685.22;4368412;32;34093;-82
2022/07/19 02:15:02;;;;;;;;;;;;;;;27.52;23.67;99687.16;4386660;32;33117;-82
2022/07/19 02:17:29;;;;;;;;;;;;;;;27.55;23.88;99693.22;4377051;32;33765;-81
2022/07/19 02:19:56;;;;;;;;;;;;;;;27.41;23.81;99690.34;4377295;32;34825;-82
2022/07/19 02:22:23;;;;;;;;;;;;;;;27.15;24.12;99692.44;4383141;32;34229;-81
2022/07/19 02:24:51;;;;;;;;;;;;;;;27.22;24.23;99695.69;4370662;32;34137;-82
2022/07/19 02:27:19;;;;;;;;;;;;;;;27.34;24.06;99694.22;4390470;32;33894;-82
2022/07/19 02:29:46;;;;;;;;;;;;;;;27.34;24.10;99694.22;4390824;32;34224;-82
2022/07/19 02:32:14;;;;;;;;;;;;;;;27.33;24.13;99697.84;4370471;32;34974;-82
2022/07/19 02:34:41;;;;;;;;;;;;;;;27.28;24.24;99694.53;4383221;32;34248;-83
2022/07/19 02:37:08;;;;;;;;;;;;;;;27.33;24.15;99700.50;4390635;32;34243;-82
2022/07/19 02:39:36;;;;;;;;;;;;;;;27.17;24.19;99697.72;4390593;32;34457;-82
2022/07/19 02:42:03;;;;;;;;;;;;;;;27.11;24.35;99697.97;4385383;32;35249;-82
2022/07/19 02:44:30;;;;;;;;;;;;;;;27.09;24.42;99703.34;4381331;32;33685;-82
2022/07/19 02:46:58;;;;;;;;;;;;;;;27.15;24.33;99697.75;4390371;32;33980;-82
2022/07/19 02:49:25;;;;;;;;;;;;;;;27.22;24.33;99702.81;4390651;32;33960;-82
2022/07/19 02:51:52;;;;;;;;;;;;;;;27.26;24.30;99704.37;4386625;32;35184;-81
2022/07/19 02:54:19;;;;;;;;;;;;;;;27.19;24.31;99697.63;4380019;32;34541;-82
2022/07/19 02:56:47;;;;;;;;;;;;;;;26.99;24.52;99696.72;4377253;32;33831;-82
2022/07/19 02:59:14;;;;;;;;;;;;;;;27.02;24.37;99701.06;4390504;32;35411;-82
2022/07/19 03:01:41;;;;;;;;;;;;;;;26.98;24.52;99696.81;4387910;32;34566;-82
2022/07/19 03:04:09;;;;;;;;;;;;;;;27.12;24.41;99694.38;4378318;32;34072;-83
2022/07/19 03:06:36;;;;;;;;;;;;;;;27.11;24.35;99695.31;4376678;32;34094;-82
2022/07/19 03:09:04;;;;;;;;;;;;;;;27.06;24.24;99700.81;4390226;32;35175;-82
2022/07/19 03:11:31;;;;;;;;;;;;;;;27.03;24.18;99703.63;4382750;32;34913;-82
2022/07/19 03:13:58;;;;;;;;;;;;;;;26.94;24.45;99706.72;4361340;32;33404;-82
2022/07/19 03:16:26;;;;;;;;;;;;;;;27.06;24.50;99711.47;4374757;32;35123;-83
2022/07/19 03:18:53;;;;;;;;;;;;;;;27.08;24.58;99704.25;4375065;32;34393;-82
2022/07/19 03:21:20;;;;;;;;;;;;;;;27.00;24.43;99701.09;4379749;32;34049;-82
2022/07/19 03:23:48;;;;;;;;;;;;;;;26.89;24.34;99698.94;4361024;32;33207;-82
2022/07/19 03:26:15;;;;;;;;;;;;;;;26.86;24.42;99707.06;4375090;32;33714;-82
2022/07/19 03:28:43;;;;;;;;;;;;;;;26.95;24.25;99703.13;4375183;32;34284;-82
2022/07/19 03:31:10;;;;;;;;;;;;;;;26.91;24.50;99707.72;4365139;32;34535;-82
2022/07/19 03:33:37;;;;;;;;;;;;;;;26.92;24.29;99713.91;4376330;32;33397;-81
2022/07/19 03:36:05;;;;;;;;;;;;;;;26.92;24.46;99713.91;4361261;32;34987;-82
2022/07/19 03:38:33;;;;;;;;;;;;;;;27.01;24.34;99713.50;4375348;32;35211;-82
2022/07/19 03:41:00;;;;;;;;;;;;;;;27.01;24.27;99718.81;4366369;32;33336;-82
2022/07/19 03:43:27;;;;;;;;;;;;;;;27.00;24.47;99722.38;4365842;32;33075;-82
2022/07/19 03:45:54;;;;;;;;;;;;;;;27.01;24.48;99725.91;4376961;32;34917;-82
2022/07/19 03:48:22;;;;;;;;;;;;;;;26.99;24.41;99725.13;4376874;32;34178;-82
2022/07/19 03:50:49;;;;;;;;;;;;;;;26.97;24.50;99729.66;4378767;32;34232;-82
2022/07/19 03:53:16;;;;;;;;;;;;;;;26.76;24.78;99734.16;4391983;32;34124;-82
2022/07/19 03:55:43;;;;;;;;;;;;;;;26.96;24.75;99730.59;4378270;32;34988;-82
2022/07/19 03:58:11;;;;;;;;;;;;;;;27.21;24.89;99730.38;4378611;32;34551;-82
2022/07/19 04:00:39;;;;;;;;;;;;;;;27.51;24.74;99728.91;4376737;32;34117;-81
2022/07/19 04:03:06;;;;;;;;;;;;;;;27.52;24.39;99729.78;4391860;32;34249;-82
2022/07/19 04:05:34;;;;;;;;;;;;;;;27.60;24.51;99731.12;4392083;32;34214;-82
2022/07/19 04:08:01;;;;;;;;;;;;;;;27.63;24.54;99741.63;4379562;32;34510;-82
2022/07/19 04:10:28;;;;;;;;;;;;;;;27.77;24.72;99734.78;4363094;32;32343;-83
2022/07/19 04:12:56;;;;;;;;;;;;;;;28.22;24.75;99744.97;4378926;32;33512;-82
2022/07/19 04:15:23;;;;;;;;;;;;;;;28.41;24.30;99741.41;4376662;32;35148;-82
2022/07/19 04:17:50;;;;;;;;;;;;;;;28.12;25.04;99746.38;4376454;32;35256;-82
2022/07/19 04:20:17;;;;;;;;;;;;;;;28.35;25.10;99747.88;4375583;32;34933;-82
2022/07/19 04:22:45;;;;;;;;;;;;;;;29.22;24.14;99748.66;4389554;32;33742;-82
2022/07/19 04:25:12;;;;;;;;;;;;;;;29.68;23.54;99747.94;4391769;32;33897;-82
2022/07/19 04:27:39;;;;;;;;;;;;;;;30.07;23.09;99744.75;4374320;32;33770;-86
2022/07/19 04:30:07;;;;;;;;;;;;;;;30.36;22.64;99751.09;4376752;32;34835;-82
2022/07/19 04:32:34;;;;;;;;;;;;;;;30.62;22.44;99752.22;4374424;32;32941;-82
2022/07/19 04:35:02;;;;;;;;;;;;;;;30.93;22.06;99745.88;4362715;32;34091;-81
2022/07/19 04:37:29;;;;;;;;;;;;;;;31.21;22.11;99749.47;4362638;32;34225;-82
2022/07/19 04:39:56;;;;;;;;;;;;;;;30.69;22.54;99750.88;4362774;32;34051;-82
2022/07/19 04:42:24;;;;;;;;;;;;;;;30.94;22.11;99752.94;4373056;32;32523;-82
2022/07/19 04:44:51;;;;;;;;;;;;;;;30.97;22.39;99754.56;4391708;32;33343;-82
2022/07/19 04:47:18;;;;;;;;;;;;;;;32.26;21.99;99752.47;4386932;32;34414;-82
2022/07/19 04:49:45;;;;;;;;;;;;;;;31.86;21.16;99740.88;4391497;32;34822;-82
2022/07/19 04:52:13;;;;;;;;;;;;;;;31.69;22.07;99747.31;4368387;32;34335;-83
2022/07/19 04:54:40;;;;;;;;;;;;;;;31.74;22.09;99753.22;4363385;32;34894;-83
2022/07/19 04:57:07;;;;;;;;;;;;;;;32.85;21.61;99744.00;4362378;32;35156;-82
2022/07/19 04:59:35;;;;;;;;;;;;;;;32.26;21.68;99749.81;4376279;32;35019;-82
2022/07/19 05:02:02;;;;;;;;;;;;;;;31.59;22.45;99746.19;4370309;32;33249;-82
2022/07/19 05:04:29;;;;;;;;;;;;;;;32.87;21.39;99745.59;4391686;32;33887;-83
2022/07/19 05:06:57;;;;;;;;;;;;;;;33.74;20.75;99738.47;4391558;32;35792;-82
2022/07/19 05:09:25;;;;;;;;;;;;;;;33.31;19.13;99748.81;4377857;32;34959;-82
2022/07/19 05:11:52;;;;;;;;;;;;;;;33.83;20.04;99745.88;4371899;32;34470;-82
2022/07/19 05:14:20;;;;;;;;;;;;;;;34.37;18.57;99750.75;4350973;32;32978;-82
2022/07/19 05:16:49;;;;;;;;;;;;;;;34.55;18.45;99745.81;4363240;32;34177;-82
2022/07/19 05:19:17;;;;;;;;;;;;;;;34.52;18.46;99747.91;4363295;32;34990;-82
2022/07/19 05:21:44;;;;;;;;;;;;;;;34.14;18.49;99741.75;4380153;32;34198;-82
2022/07/19 05:24:11;;;;;;;;;;;;;;;33.04;19.49;99748.97;4369994;32;33208;-82
2022/07/19 05:26:39;;;;;;;;;;;;;;;32.66;20.51;99747.13;4376411;32;34384;-82
2022/07/19 05:29:06;;;;;;;;;;;;;;;32.96;20.72;99752.19;4362362;32;33815;-81
2022/07/19 05:31:33;;;;;;;;;;;;;;;32.19;21.75;99737.75;4375681;32;34266;-82
2022/07/19 05:34:01;;;;;;;;;;;;;;;32.39;21.72;99749.81;4371998;32;32818;-82
2022/07/19 05:36:29;;;;;;;;;;;;;;;32.54;20.77;99747.94;4391243;32;33900;-95
2022/07/19 05:38:56;;;;;;;;;;;;;;;32.39;21.13;99753.38;4391639;32;35158;-82
2022/07/19 05:41:24;;;;;;;;;;;;;;;33.83;20.14;99743.19;4376991;32;33318;-82
2022/07/19 05:43:51;;;;;;;;;;;;;;;33.17;20.42;99744.41;4381294;32;34171;-82
2022/07/19 05:46:19;;;;;;;;;;;;;;;31.90;21.84;99748.63;4391609;32;34214;-82
2022/07/19 05:48:46;;;;;;;;;;;;;;;32.71;20.21;99742.28;4377621;32;34896;-82
2022/07/19 05:51:13;;;;;;;;;;;;;;;33.04;19.09;99740.91;4364536;32;33400;-81
2022/07/19 05:53:41;;;;;;;;;;;;;;;32.16;20.56;99749.56;4353258;32;34196;-82
2022/07/19 05:56:09;;;;;;;;;;;;;;;32.45;19.91;99752.97;4376130;32;33720;-83
2022/07/19 05:58:36;;;;;;;;;;;;;;;32.02;20.87;99744.28;4362158;32;32908;-81
2022/07/19 06:01:19;;;;;;;;;;;;;;;30.89;22.43;99749.69;4361732;32;33836;-81
2022/07/19 06:03:54;;;;;;;;;;;;;;;32.35;21.07;99745.62;4379509;32;35146;-82
2022/07/19 06:06:26;;;;;;;;;;;;;;;33.09;20.23;99738.72;4365764;32;34466;-90
2022/07/19 06:08:53;;;;;;;;;;;;;;;31.91;21.38;99746.81;4364013;32;34076;-80
2022/07/19 06:11:22;;;;;;;;;;;;;;;32.37;20.64;99751.75;4378279;32;34414;-82
2022/07/19 06:13:49;;;;;;;;;;;;;;;32.65;20.47;99746.22;4390274;32;35197;-82
2022/07/19 06:16:17;;;;;;;;;;;;;;;32.24;20.77;99746.38;4391575;32;34065;-81
2022/07/19 06:18:44;;;;;;;;;;;;;;;32.03;20.58;99753.19;4391161;32;33941;-83
2022/07/19 06:21:13;;;;;;;;;;;;;;;31.89;21.25;99749.56;4386276;32;33300;-82
2022/07/19 06:23:41;;;;;;;;;;;;;;;31.38;21.47;99745.78;4362098;32;35757;-83
2022/07/19 06:26:08;;;;;;;;;;;;;;;32.59;20.66;99753.88;4375577;32;33880;-81
2022/07/19 06:28:36;;;;;;;;;;;;;;;31.27;21.44;99751.78;4362053;32;34731;-80
2022/07/19 06:31:08;;;;;;;;;;;;;;;32.63;20.10;99752.69;4378919;32;34145;-80
2022/07/19 06:33:36;;;;;;;;;;;;;;;31.52;21.47;99747.53;4377198;32;33975;-81
2022/07/19 06:36:03;;;;;;;;;;;;;;;32.33;20.17;99747.56;4388560;32;35160;-81
2022/07/19 06:38:30;;;;;;;;;;;;;;;32.30;20.97;99751.31;4375531;32;34206;-80
2022/07/19 06:40:58;;;;;;;;;;;;;;;33.21;20.19;99753.97;4375957;32;33279;-81
2022/07/19 06:43:25;;;;;;;;;;;;;;;33.55;19.30;99760.47;4390635;32;33707;-81
2022/07/19 06:45:52;;;;;;;;;;;;;;;33.47;19.00;99760.19;4389577;32;34022;-81
2022/07/19 06:48:20;;;;;;;;;;;;;;;32.90;19.36;99758.81;4374527;32;35137;-82
2022/07/19 06:50:47;;;;;;;;;;;;;;;33.48;19.64;99752.97;4387738;32;33624;-82
2022/07/19 06:53:14;;;;;;;;;;;;;;;33.07;19.18;99748.72;4388504;32;33958;-81
2022/07/19 06:55:42;;;;;;;;;;;;;;;33.53;18.40;99750.81;4390620;32;34459;-81
2022/07/19 06:58:09;;;;;;;;;;;;;;;33.82;18.94;99754.03;4375832;32;34345;-81
2022/07/19 07:00:36;;;;;;;;;;;;;;;33.73;18.58;99743.97;4375067;32;33926;-82
2022/07/19 07:03:04;;;;;;;;;;;;;;;33.45;17.96;99747.78;4378453;32;33955;-81
2022/07/19 07:05:31;;;;;;;;;;;;;;;33.29;19.70;99750.72;4360258;32;35274;-82
2022/07/19 07:07:59;;;;;;;;;;;;;;;32.37;19.14;99747.25;4372817;32;34238;-86
2022/07/19 07:10:26;;;;;;;;;;;;;;;33.73;17.74;99746.66;4375225;32;34135;-83
2022/07/19 07:12:53;;;;;;;;;;;;;;;33.60;17.79;99746.69;4349498;32;34128;-81
2022/07/19 07:15:21;;;;;;;;;;;;;;;33.70;16.92;99739.66;4371650;32;34463;-83
2022/07/19 07:17:48;;;;;;;;;;;;;;;34.77;16.65;99736.91;4377455;32;34138;-82
2022/07/19 07:20:15;;;;;;;;;;;;;;;34.79;17.15;99734.97;4377125;32;34340;-82
2022/07/19 07:22:43;;;;;;;;;;;;;;;33.99;17.23;99732.16;4376730;32;34223;-83
2022/07/19 07:25:10;;;;;;;;;;;;;;;32.67;18.91;99732.72;4358911;32;35319;-80
2022/07/19 07:27:37;;;;;;;;;;;;;;;34.03;17.73;99732.78;4373744;32;34629;-83
2022/07/19 07:30:05;;;;;;;;;;;;;;;32.83;18.79;99727.97;4360326;32;33486;-85
2022/07/19 07:32:33;;;;;;;;;;;;;;;33.67;16.31;99723.75;4362679;32;34308;-83
2022/07/19 07:35:02;;;;;;;;;;;;;;;33.43;17.46;99721.03;4387950;32;35393;-84
2022/07/19 07:37:30;;;;;;;;;;;;;;;35.16;16.94;99723.97;4378065;32;33724;-83
2022/07/19 07:39:57;;;;;;;;;;;;;;;35.13;15.69;99721.53;4390795;32;33509;-83
2022/07/19 07:42:25;;;;;;;;;;;;;;;34.35;16.45;99725.78;4366258;32;33959;-82
2022/07/19 07:44:52;;;;;;;;;;;;;;;35.40;15.12;99713.03;4380778;32;34312;-83
2022/07/19 07:47:22;;;;;;;;;;;;;;;34.93;16.60;99716.84;4351049;32;35079;-82
2022/07/19 07:49:50;;;;;;;;;;;;;;;35.25;15.77;99719.69;4376941;32;33634;-82
2022/07/19 07:52:18;;;;;;;;;;;;;;;35.37;15.76;99715.12;4376637;32;34504;-86
2022/07/19 07:54:47;;;;;;;;;;;;;;;36.17;15.36;99715.62;4377502;32;34081;-83
2022/07/19 07:57:34;;;;;;;;;;;;;;;35.36;14.61;99721.50;4373984;32;34495;-83
2022/07/19 08:00:03;;;;;;;;;;;;;;;35.71;15.83;99724.88;4379396;32;33271;-84
2022/07/19 08:02:38;;;;;;;;;;;;;;;35.24;16.00;99728.75;4391680;32;34250;-91
2022/07/19 08:05:06;;;;;;;;;;;;;;;35.46;15.09;99722.44;4378957;32;35284;-80
2022/07/19 08:07:34;;;;;;;;;;;;;;;35.18;15.47;99721.16;4363180;32;34164;-87
2022/07/19 08:10:05;;;;;;;;;;;;;;;35.36;17.18;99726.91;4351436;32;33407;-80
2022/07/19 08:12:33;;;;;;;;;;;;;;;34.47;16.83;99728.50;4376710;32;34338;-86
2022/07/19 08:15:00;;;;;;;;;;;;;;;34.28;18.03;99729.91;4370194;32;35174;-87
2022/07/19 08:17:27;;;;;;;;;;;;;;;35.13;16.72;99726.91;4382433;32;34194;-86
2022/07/19 08:19:55;;;;;;;;;;;;;;;34.39;17.53;99732.63;4391725;32;33903;-79
2022/07/19 08:22:22;;;;;;;;;;;;;;;34.42;17.64;99730.69;4380250;32;34047;-80
2022/07/19 08:24:49;;;;;;;;;;;;;;;34.24;17.35;99728.44;4375887;32;35074;-80
2022/07/19 08:27:17;;;;;;;;;;;;;;;34.60;17.02;99729.31;4376545;32;34340;-79
2022/07/19 08:29:44;;;;;;;;;;;;;;;33.00;18.14;99723.25;4362900;32;32011;-81
2022/07/19 08:32:11;;;;;;;;;;;;;;;33.27;17.82;99723.97;4380246;32;34737;-79
2022/07/19 08:34:39;;;;;;;;;;;;;;;34.35;17.07;99719.53;4381662;32;34284;-81
2022/07/19 08:37:06;;;;;;;;;;;;;;;35.05;16.79;99714.06;4379110;32;35118;-80
2022/07/19 08:39:33;;;;;;;;;;;;;;;33.99;17.40;99721.41;4376377;32;33483;-85
2022/07/19 08:42:01;;;;;;;;;;;;;;;34.97;17.13;99711.09;4369524;32;33868;-81
2022/07/19 08:44:28;;;;;;;;;;;;;;;34.63;16.28;99721.00;4368934;32;35043;-80
2022/07/19 08:46:55;;;;;;;;;;;;;;;34.00;17.05;99714.19;4380324;32;34951;-80
2022/07/19 08:49:23;;;;;;;;;;;;;;;32.92;18.45;99719.28;4391080;32;33327;-80
2022/07/19 08:51:50;;;;;;;;;;;;;;;33.74;17.43;99716.97;4391218;32;33593;-80
2022/07/19 08:54:19;;;;;;;;;;;;;;;34.45;16.87;99714.31;4366220;32;35106;-85
2022/07/19 08:59:32;;;;;;;;;;;;;;;34.35;17.37;99715.00;4360970;32;34033;-86
2022/07/19 09:02:00;;;;;;;;;;;;;;;34.32;17.22;99719.78;4370040;32;33758;-87
2022/07/19 09:04:28;;;;;;;;;;;;;;;35.16;16.26;99710.50;4362360;32;35197;-86
2022/07/19 09:06:57;;;;;;;;;;;;;;;35.41;16.02;99700.41;4362225;32;34253;-80
2022/07/19 09:09:28;;;;;;;;;;;;;;;35.89;16.07;99709.00;4350690;32;33433;-81
2022/07/19 09:11:56;;;;;;;;;;;;;;;35.94;16.29;99706.75;4376008;32;33479;-79
2022/07/19 09:14:25;;;;;;;;;;;;;;;35.48;15.06;99693.53;4374927;32;34313;-82
2022/07/19 09:17:16;;;;;;;;;;;;;;;35.97;15.47;99701.09;4385904;32;34068;-81
2022/07/19 09:19:44;;;;;;;;;;;;;;;35.07;16.13;99697.75;4360512;32;32001;-81
2022/07/19 09:22:12;;;;;;;;;;;;;;;35.58;15.51;99689.13;4362330;32;32836;-86
2022/07/19 09:24:41;;;;;;;;;;;;;;;35.69;16.01;99699.03;4350168;32;34348;-81
2022/07/19 09:27:11;;;;;;;;;;;;;;;36.05;15.29;99697.78;4366713;32;34000;-85
2022/07/19 09:29:39;;;;;;;;;;;;;;;35.38;16.01;99697.97;4361205;32;32487;-84
2022/07/19 09:32:08;;;;;;;;;;;;;;;34.65;16.13;99699.31;4371826;32;34227;-80
2022/07/19 09:34:40;;;;;;;;;;;;;;;34.54;15.94;99702.84;4359785;32;34927;-82
2022/07/19 09:37:07;;;;;;;;;;;;;;;35.07;17.22;99695.91;4373591;32;34996;-81
2022/07/19 09:39:34;;;;;;;;;;;;;;;35.15;15.14;99703.37;4375811;32;33186;-81
2022/07/19 09:42:03;;;;;;;;;;;;;;;35.03;16.45;99696.28;4376002;32;35131;-86
2022/07/19 09:44:30;;;;;;;;;;;;;;;35.35;15.39;99693.69;4375951;32;34236;-79
2022/07/19 09:46:57;;;;;;;;;;;;;;;35.76;15.70;99695.69;4375383;32;34288;-83
2022/07/19 09:49:25;;;;;;;;;;;;;;;35.49;16.77;99695.22;4362425;32;32812;-81
2022/07/19 09:51:53;;;;;;;;;;;;;;;35.56;15.36;99693.78;4362395;32;33859;-80
2022/07/19 09:54:21;;;;;;;;;;;;;;;34.65;16.66;99686.72;4376228;32;34984;-84
2022/07/19 09:56:51;;;;;;;;;;;;;;;34.50;16.04;99693.28;4361457;32;34104;-83
2022/07/19 09:59:22;;;;;;;;;;;;;;;34.43;16.99;99684.81;4375573;32;31517;-83
2022/07/19 10:01:51;;;;;;;;;;;;;;;35.05;16.39;99680.87;4375663;32;34086;-82
2022/07/19 10:04:20;;;;;;;;;;;;;;;34.34;16.28;99691.78;4374948;32;34394;-84
2022/07/19 10:06:48;;;;;;;;;;;;;;;35.31;16.19;99679.59;4358118;32;35100;-83
2022/07/19 10:09:16;;;;;;;;;;;;;;;35.45;15.76;99675.75;4362129;32;33357;-83
2022/07/19 10:11:44;;;;;;;;;;;;;;;36.01;15.62;99675.59;4378922;32;34333;-85
2022/07/19 10:14:11;;;;;;;;;;;;;;;35.26;16.26;99680.94;4362663;32;34520;-81
2022/07/19 10:16:48;;;;;;;;;;;;;;;35.30;16.62;99677.88;4370150;32;33658;-83
2022/07/19 10:19:15;;;;;;;;;;;;;;;35.63;16.19;99669.88;4360933;32;33426;-82
2022/07/19 10:21:43;;;;;;;;;;;;;;;35.38;15.75;99674.53;4360894;32;34602;-86
2022/07/19 10:24:10;;;;;;;;;;;;;;;34.74;17.50;99683.31;4366842;32;34484;-82
2022/07/19 10:26:39;;;;;;;;;;;;;;;34.79;16.46;99674.84;4373233;32;34723;-81
2022/07/19 10:29:10;;;;;;;;;;;;;;;35.82;15.85;99670.03;4373617;32;32957;-83
2022/07/19 10:31:40;;;;;;;;;;;;;;;35.81;16.07;99679.97;4375536;32;35055;-83
2022/07/19 10:34:08;;;;;;;;;;;;;;;36.06;15.62;99673.34;4390962;32;34459;-82
2022/07/19 10:36:39;;;;;;;;;;;;;;;36.70;15.08;99672.34;4377363;32;33819;-85
2022/07/19 10:39:19;;;;;;;;;;;;;;;36.87;14.73;99667.31;4375773;32;33239;-81
2022/07/19 10:42:05;;;;;;;;;;;;;;;36.33;14.85;99661.19;4378762;32;34070;-81
2022/07/19 10:44:33;;;;;;;;;;;;;;;36.54;15.65;99653.94;4362707;32;33231;-88
2022/07/19 10:47:01;;;;;;;;;;;;;;;35.85;15.64;99663.53;4367523;32;34094;-82
2022/07/19 10:49:41;;;;;;;;;;;;;;;36.14;15.25;99658.34;4389817;32;33543;-83
2022/07/19 10:52:27;;;;;;;;;;;;;;;35.96;15.41;99660.78;4376676;32;35237;-83
2022/07/19 10:55:13;;;;;;;;;;;;;;;37.03;14.29;99651.47;4375088;32;34555;-84
2022/07/19 10:57:40;;;;;;;;;;;;;;;36.64;14.67;99654.00;4375374;32;33911;-84
2022/07/19 11:00:16;;;;;;;;;;;;;;;36.94;14.98;99658.56;4375397;32;33270;-88
2022/07/19 11:02:44;;;;;;;;;;;;;;;37.24;14.38;99649.53;4361138;32;35045;-84
2022/07/19 11:05:21;;;;;;;;;;;;;;;37.61;14.84;99650.75;4361886;32;34506;-82
2022/07/19 11:07:53;;;;;;;;;;;;;;;37.91;14.45;99641.66;4375261;32;33752;-80
2022/07/19 11:10:21;;;;;;;;;;;;;;;36.64;14.77;99637.78;4361787;32;33144;-84
2022/07/19 11:12:49;;;;;;;;;;;;;;;37.72;14.47;99643.34;4375060;32;35106;-80
2022/07/19 11:15:16;;;;;;;;;;;;;;;37.96;13.98;99639.34;4374816;32;34382;-83
2022/07/19 11:17:52;;;;;;;;;;;;;;;38.05;14.04;99637.66;4362052;32;34559;-83
2022/07/19 11:20:30;;;;;;;;;;;;;;;37.95;14.73;99627.69;4369726;32;33859;-80
2022/07/19 11:22:58;;;;;;;;;;;;;;;38.05;13.75;99626.84;4357895;32;33275;-81
2022/07/19 11:25:25;;;;;;;;;;;;;;;37.79;14.76;99631.94;4360581;32;35085;-82
2022/07/19 11:27:53;;;;;;;;;;;;;;;38.21;13.32;99627.06;4368918;32;34325;-81
2022/07/19 11:30:21;;;;;;;;;;;;;;;37.84;13.42;99622.38;4375096;32;33133;-80
2022/07/19 11:32:52;;;;;;;;;;;;;;;38.02;13.02;99617.12;4361560;32;34200;-79
2022/07/19 11:35:19;;;;;;;;;;;;;;;38.31;13.10;99611.66;4374827;32;34853;-84
2022/07/19 11:37:47;;;;;;;;;;;;;;;38.12;13.13;99615.28;4361514;32;33821;-82
2022/07/19 11:40:14;;;;;;;;;;;;;;;37.44;14.19;99617.16;4368876;32;34266;-80
2022/07/19 11:42:43;;;;;;;;;;;;;;;35.77;15.30;99602.97;4374356;32;34214;-80
2022/07/19 11:45:30;;;;;;;;;;;;;;;37.22;14.67;99602.84;4375106;32;35234;-80
2022/07/19 11:47:58;;;;;;;;;;;;;;;37.10;14.49;99606.69;4360999;32;34615;-84
2022/07/19 11:50:26;;;;;;;;;;;;;;;37.01;15.07;99599.38;4374040;32;33687;-80
2022/07/19 11:52:57;;;;;;;;;;;;;;;37.32;14.22;99602.03;4360795;32;34826;-81
2022/07/19 11:55:26;;;;;;;;;;;;;;;37.13;14.59;99602.84;4370523;32;34290;-81
2022/07/19 11:57:54;;;;;;;;;;;;;;;36.78;14.89;99599.56;4370950;32;34286;-81
2022/07/19 12:00:21;;;;;;;;;;;;;;;37.63;14.05;99590.09;4327297;32;874223;-81
2022/07/19 12:03:03;;;;;;;;;;;;;;;37.47;14.05;99589.81;4360459;32;34964;-82
2022/07/19 12:05:31;;;;;;;;;;;;;;;37.97;14.21;99579.69;4376365;32;34707;-83
2022/07/19 12:08:00;;;;;;;;;;;;;;;37.42;13.92;99592.94;4370370;32;34066;-83
2022/07/19 12:10:44;;;;;;;;;;;;;;;36.91;14.90;99587.69;4391727;32;33070;-81
2022/07/19 12:13:13;;;;;;;;;;;;;;;37.68;13.54;99587.81;4374226;32;34352;-81
2022/07/19 12:15:43;;;;;;;;;;;;;;;37.34;14.03;99584.66;4375389;32;35138;-80
2022/07/19 12:18:12;;;;;;;;;;;;;;;36.17;15.21;99588.75;4372550;32;33716;-80
2022/07/19 12:20:39;;;;;;;;;;;;;;;37.01;14.32;99580.47;4376529;32;33308;-81
2022/07/19 12:23:23;;;;;;;;;;;;;;;37.83;13.60;99576.53;4376566;32;34979;-81
2022/07/19 12:25:50;;;;;;;;;;;;;;;38.20;13.46;99577.47;4376208;32;34293;-80
2022/07/19 12:28:25;;;;;;;;;;;;;;;38.25;13.25;99571.63;4376400;32;34025;-81
2022/07/19 12:31:02;;;;;;;;;;;;;;;38.21;13.83;99571.06;4363198;32;34310;-86
2022/07/19 12:33:30;;;;;;;;;;;;;;;37.74;14.46;99575.56;4376665;32;34324;-80
2022/07/19 12:35:57;;;;;;;;;;;;;;;37.46;13.58;99572.72;4376581;32;34431;-80
2022/07/19 12:38:31;;;;;;;;;;;;;;;38.08;14.46;99565.13;4362829;32;34460;-82
2022/07/19 12:41:05;;;;;;;;;;;;;;;38.30;14.59;99568.47;4362649;32;33454;-80
2022/07/19 12:43:33;;;;;;;;;;;;;;;36.26;15.07;99566.37;4376405;32;33792;-82
2022/07/19 12:46:01;;;;;;;;;;;;;;;36.48;15.30;99564.50;4376375;32;35352;-82
2022/07/19 12:48:28;;;;;;;;;;;;;;;36.00;15.47;99557.00;4376586;32;34295;-83
2022/07/19 12:50:55;;;;;;;;;;;;;;;36.00;15.73;99565.97;4370178;32;33489;-81
2022/07/19 12:53:23;;;;;;;;;;;;;;;37.12;14.67;99564.13;4374910;32;35142;-85
2022/07/19 12:55:50;;;;;;;;;;;;;;;37.76;14.00;99561.88;4375547;32;35214;-80
2022/07/19 12:59:38;;;;;;;;;;;;;;;37.31;13.88;99551.63;4362407;32;34089;-80